createdAt,value
2018-09-22T00:00:50.196Z,21.36
2018-09-22T00:03:11.463Z,21.36
2018-09-22T00:04:12.074Z,21.34
2018-09-22T00:05:11.712Z,21.35
2018-09-22T00:06:11.843Z,21.35
2018-09-22T00:07:11.831Z,21.33
2018-09-22T00:08:11.634Z,21.34
2018-09-22T00:09:11.816Z,21.35
2018-09-22T00:10:11.790Z,21.35
2018-09-22T00:11:12.093Z,21.34
2018-09-22T00:12:11.558Z,21.35
2018-09-22T00:13:11.729Z,21.34
2018-09-22T00:15:33.197Z,21.34
2018-09-22T00:16:33.368Z,21.33
2018-09-22T00:17:33.705Z,21.33
2018-09-22T00:18:33.453Z,21.33
2018-09-22T00:19:33.601Z,21.33
2018-09-22T00:20:33.491Z,21.33
2018-09-22T00:21:33.885Z,21.33
2018-09-22T00:22:33.442Z,21.32
2018-09-22T00:23:33.450Z,21.33
2018-09-22T00:24:33.599Z,21.33
2018-09-22T00:25:33.545Z,21.33
2018-09-22T00:27:54.983Z,21.34
2018-09-22T00:28:55.048Z,21.33
2018-09-22T00:29:54.996Z,21.34
2018-09-22T00:30:55.088Z,21.34
2018-09-22T00:31:55.007Z,21.33
2018-09-22T00:32:55.278Z,21.33
2018-09-22T00:33:54.951Z,21.32
2018-09-22T00:34:55.390Z,21.32
2018-09-22T00:35:55.144Z,21.33
2018-09-22T00:36:55.145Z,21.33
2018-09-22T00:37:54.958Z,21.33
2018-09-22T00:40:16.753Z,21.33
2018-09-22T00:41:16.959Z,21.32
2018-09-22T00:42:16.907Z,21.32
2018-09-22T00:43:16.814Z,21.31
2018-09-22T00:44:16.957Z,21.3
2018-09-22T00:45:16.923Z,21.32
2018-09-22T00:46:16.881Z,21.3
2018-09-22T00:47:17.237Z,21.31
2018-09-22T00:48:16.885Z,21.31
2018-09-22T00:49:16.655Z,21.31
2018-09-22T00:50:16.972Z,21.3
2018-09-22T00:52:38.428Z,21.32
2018-09-22T00:53:38.437Z,21.3
2018-09-22T00:54:38.762Z,21.31
2018-09-22T00:55:38.555Z,21.31
2018-09-22T00:56:39.079Z,21.3
2018-09-22T00:57:38.601Z,21.31
2018-09-22T00:58:38.766Z,21.31
2018-09-22T00:59:38.804Z,21.3
2018-09-22T01:00:38.949Z,21.3
2018-09-22T01:01:38.566Z,21.3
2018-09-22T01:02:38.994Z,21.3
2018-09-22T01:05:00.214Z,21.3
2018-09-22T01:06:00.182Z,21.29
2018-09-22T01:07:00.265Z,21.28
2018-09-22T01:08:00.535Z,21.28
2018-09-22T01:09:00.302Z,21.29
2018-09-22T01:10:00.327Z,21.28
2018-09-22T01:11:00.538Z,21.28
2018-09-22T01:12:00.304Z,21.29
2018-09-22T01:13:00.549Z,21.28
2018-09-22T01:14:00.296Z,21.28
2018-09-22T01:15:00.209Z,21.28
2018-09-22T01:17:21.705Z,21.3
2018-09-22T01:18:21.812Z,21.29
2018-09-22T01:19:21.844Z,21.29
2018-09-22T01:20:21.847Z,21.28
2018-09-22T01:21:21.942Z,21.28
2018-09-22T01:22:21.862Z,21.27
2018-09-22T01:23:21.922Z,21.28
2018-09-22T01:24:22.057Z,21.28
2018-09-22T01:25:21.936Z,21.27
2018-09-22T01:26:21.892Z,21.27
2018-09-22T01:27:21.888Z,21.27
2018-09-22T01:29:43.447Z,21.28
2018-09-22T01:30:43.525Z,21.27
2018-09-22T01:31:43.540Z,21.26
2018-09-22T01:32:43.572Z,21.26
2018-09-22T01:33:43.603Z,21.27
2018-09-22T01:34:43.554Z,21.26
2018-09-22T01:35:43.633Z,21.26
2018-09-22T01:36:43.754Z,21.26
2018-09-22T01:37:43.646Z,21.26
2018-09-22T01:38:43.400Z,21.25
2018-09-22T01:39:43.679Z,21.25
2018-09-22T01:42:04.991Z,21.26
2018-09-22T01:43:05.371Z,21.25
2018-09-22T01:44:05.454Z,21.25
2018-09-22T01:45:05.403Z,21.26
2018-09-22T01:46:05.248Z,21.25
2018-09-22T01:47:05.250Z,21.25
2018-09-22T01:48:05.313Z,21.26
2018-09-22T01:49:05.276Z,21.25
2018-09-22T01:50:05.277Z,21.26
2018-09-22T01:51:05.512Z,21.26
2018-09-22T01:52:05.123Z,21.26
2018-09-22T01:54:26.830Z,21.27
2018-09-22T01:55:26.935Z,21.24
2018-09-22T01:56:26.995Z,21.25
2018-09-22T01:57:27.169Z,21.25
2018-09-22T01:58:27.195Z,21.26
2018-09-22T01:59:26.866Z,21.25
2018-09-22T02:00:26.983Z,21.25
2018-09-22T02:01:27.358Z,21.24
2018-09-22T02:02:27.314Z,21.24
2018-09-22T02:03:27.677Z,21.24
2018-09-22T02:04:27.033Z,21.24
2018-09-22T02:06:48.405Z,21.24
2018-09-22T02:07:48.716Z,21.24
2018-09-22T02:08:48.666Z,21.24
2018-09-22T02:09:48.877Z,21.23
2018-09-22T02:10:48.804Z,21.24
2018-09-22T02:11:48.850Z,21.24
2018-09-22T02:12:48.731Z,21.23
2018-09-22T02:13:48.685Z,21.22
2018-09-22T02:14:49.117Z,21.22
2018-09-22T02:15:48.588Z,21.22
2018-09-22T02:16:48.592Z,21.23
2018-09-22T02:21:10.207Z,21.25
2018-09-22T02:22:10.369Z,21.23
2018-09-22T02:23:10.649Z,21.22
2018-09-22T02:24:10.488Z,21.22
2018-09-22T02:25:10.341Z,21.22
2018-09-22T02:26:10.497Z,21.2
2018-09-22T02:27:10.442Z,21.22
2018-09-22T02:28:10.443Z,21.22
2018-09-22T02:29:10.412Z,21.21
2018-09-22T02:30:10.531Z,21.21
2018-09-22T02:31:10.444Z,21.22
2018-09-22T02:33:32.117Z,21.22
2018-09-22T02:34:32.033Z,21.21
2018-09-22T02:35:32.031Z,21.2
2018-09-22T02:36:32.285Z,21.2
2018-09-22T02:37:32.367Z,21.2
2018-09-22T02:38:32.039Z,21.19
2018-09-22T02:39:32.128Z,21.2
2018-09-22T02:40:32.133Z,21.18
2018-09-22T02:41:32.319Z,21.2
2018-09-22T02:42:32.230Z,21.2
2018-09-22T02:43:31.961Z,21.2
2018-09-22T02:47:53.740Z,21.2
2018-09-22T02:48:53.763Z,21.19
2018-09-22T02:49:53.724Z,21.18
2018-09-22T02:50:53.772Z,21.19
2018-09-22T02:51:53.827Z,21.19
2018-09-22T02:52:53.782Z,21.18
2018-09-22T02:53:53.799Z,21.19
2018-09-22T02:54:53.776Z,21.19
2018-09-22T02:55:53.835Z,21.18
2018-09-22T02:56:53.825Z,21.19
2018-09-22T02:57:53.803Z,21.18
2018-09-22T03:02:15.376Z,21.19
2018-09-22T03:03:15.830Z,21.19
2018-09-22T03:04:15.788Z,21.18
2018-09-22T03:05:15.583Z,21.18
2018-09-22T03:06:15.623Z,21.18
2018-09-22T03:07:15.580Z,21.17
2018-09-22T03:08:15.295Z,21.17
2018-09-22T03:09:15.706Z,21.17
2018-09-22T03:10:15.528Z,21.16
2018-09-22T03:11:15.599Z,21.17
2018-09-22T03:12:15.574Z,21.17
2018-09-22T03:16:37.284Z,21.18
2018-09-22T03:17:37.083Z,21.18
2018-09-22T03:18:37.224Z,21.17
2018-09-22T03:19:37.177Z,21.16
2018-09-22T03:20:37.207Z,21.15
2018-09-22T03:21:37.223Z,21.17
2018-09-22T03:22:37.177Z,21.16
2018-09-22T03:23:37.268Z,21.15
2018-09-22T03:24:37.204Z,21.16
2018-09-22T03:25:37.296Z,21.16
2018-09-22T03:26:38.708Z,21.16
2018-09-22T03:29:04.685Z,21.16
2018-09-22T03:30:04.720Z,21.15
2018-09-22T03:31:04.780Z,21.14
2018-09-22T03:32:04.566Z,21.13
2018-09-22T03:33:04.432Z,21.14
2018-09-22T03:34:05.103Z,21.15
2018-09-22T03:35:04.413Z,21.15
2018-09-22T03:36:04.347Z,21.14
2018-09-22T03:37:04.435Z,21.15
2018-09-22T03:38:04.444Z,21.15
2018-09-22T03:39:04.564Z,21.15
2018-09-22T03:43:31.808Z,21.15
2018-09-22T03:44:31.830Z,21.14
2018-09-22T03:45:31.985Z,21.13
2018-09-22T03:46:32.001Z,21.14
2018-09-22T03:47:31.980Z,21.14
2018-09-22T03:48:32.034Z,21.15
2018-09-22T03:49:31.953Z,21.13
2018-09-22T03:50:32.493Z,21.13
2018-09-22T03:51:31.944Z,21.13
2018-09-22T03:52:31.960Z,21.13
2018-09-22T03:53:32.006Z,21.13
2018-09-22T03:57:59.466Z,21.14
2018-09-22T03:58:59.287Z,21.12
2018-09-22T03:59:59.587Z,21.13
2018-09-22T04:00:59.351Z,21.13
2018-09-22T04:01:59.344Z,21.13
2018-09-22T04:02:59.340Z,21.13
2018-09-22T04:03:59.374Z,21.13
2018-09-22T04:04:59.377Z,21.13
2018-09-22T04:05:59.215Z,21.13
2018-09-22T04:06:59.224Z,21.12
2018-09-22T04:07:59.190Z,21.12
2018-09-22T04:12:27.133Z,21.13
2018-09-22T04:13:26.750Z,21.11
2018-09-22T04:14:26.965Z,21.1
2018-09-22T04:15:26.548Z,21.1
2018-09-22T04:16:26.455Z,21.11
2018-09-22T04:17:26.452Z,21.11
2018-09-22T04:18:26.523Z,21.12
2018-09-22T04:19:26.462Z,21.11
2018-09-22T04:20:26.633Z,21.1
2018-09-22T04:21:26.466Z,21.1
2018-09-22T04:22:26.824Z,21.1
2018-09-22T04:26:54.154Z,21.12
2018-09-22T04:27:54.146Z,21.11
2018-09-22T04:28:54.079Z,21.1
2018-09-22T04:29:54.032Z,21.09
2018-09-22T04:30:54.177Z,21.1
2018-09-22T04:31:54.566Z,21.1
2018-09-22T04:32:54.207Z,21.1
2018-09-22T04:33:53.941Z,21.1
2018-09-22T04:34:53.839Z,21.08
2018-09-22T04:35:54.029Z,21.08
2018-09-22T04:36:53.847Z,21.09
2018-09-22T04:39:21.525Z,21.08
2018-09-22T04:40:21.370Z,21.08
2018-09-22T04:41:21.490Z,21.07
2018-09-22T04:42:21.293Z,21.08
2018-09-22T04:43:21.840Z,21.07
2018-09-22T04:44:21.252Z,21.07
2018-09-22T04:45:21.751Z,21.08
2018-09-22T04:46:21.292Z,21.07
2018-09-22T04:47:21.316Z,21.07
2018-09-22T04:48:21.395Z,21.07
2018-09-22T04:49:21.207Z,21.07
2018-09-22T04:51:43.370Z,21.07
2018-09-22T04:52:43.092Z,21.07
2018-09-22T04:53:42.990Z,21.07
2018-09-22T04:54:42.957Z,21.06
2018-09-22T04:55:43.068Z,21.07
2018-09-22T04:56:43.194Z,21.07
2018-09-22T04:57:42.993Z,21.06
2018-09-22T04:58:43.024Z,21.06
2018-09-22T04:59:43.105Z,21.07
2018-09-22T05:00:43.028Z,21.06
2018-09-22T05:01:42.857Z,21.05
2018-09-22T05:04:04.680Z,21.07
2018-09-22T05:05:04.378Z,21.06
2018-09-22T05:06:04.645Z,21.07
2018-09-22T05:07:04.626Z,21.06
2018-09-22T05:08:04.799Z,20.96
2018-09-22T05:09:04.648Z,20.79
2018-09-22T05:10:04.437Z,20.61
2018-09-22T05:11:04.736Z,20.57
2018-09-22T05:12:04.735Z,20.34
2018-09-22T05:13:04.704Z,20.35
2018-09-22T05:14:04.721Z,20.06
2018-09-22T05:18:26.491Z,19.65
2018-09-22T05:19:26.342Z,19.62
2018-09-22T05:20:26.555Z,19.53
2018-09-22T05:21:26.383Z,19.39
2018-09-22T05:22:26.606Z,19.33
2018-09-22T05:23:26.464Z,19.37
2018-09-22T05:24:26.432Z,19.26
2018-09-22T05:25:26.468Z,19.16
2018-09-22T05:26:26.480Z,19.1
2018-09-22T05:27:26.548Z,19.17
2018-09-22T05:28:26.524Z,19.15
2018-09-22T05:32:53.584Z,19
2018-09-22T05:33:53.597Z,18.96
2018-09-22T05:34:53.598Z,18.89
2018-09-22T05:35:53.557Z,18.84
2018-09-22T05:36:53.646Z,18.75
2018-09-22T05:37:53.623Z,18.71
2018-09-22T05:38:53.682Z,18.63
2018-09-22T05:39:53.677Z,18.66
2018-09-22T05:40:53.767Z,18.6
2018-09-22T05:41:53.711Z,18.6
2018-09-22T05:42:53.746Z,18.61
2018-09-22T05:47:21.190Z,18.64
2018-09-22T05:48:21.180Z,18.64
2018-09-22T05:49:21.459Z,18.66
2018-09-22T05:50:21.178Z,18.66
2018-09-22T05:51:21.483Z,18.68
2018-09-22T05:52:21.504Z,18.69
2018-09-22T05:53:21.603Z,18.71
2018-09-22T05:54:21.337Z,18.7
2018-09-22T05:55:21.323Z,18.7
2018-09-22T05:56:21.286Z,18.7
2018-09-22T05:57:21.342Z,18.69
2018-09-22T05:59:48.571Z,18.69
2018-09-22T06:00:48.340Z,18.6
2018-09-22T06:01:49.096Z,18.54
2018-09-22T06:02:48.357Z,18.48
2018-09-22T06:03:49.512Z,18.4
2018-09-22T06:04:48.724Z,18.39
2018-09-22T06:05:48.520Z,18.36
2018-09-22T06:06:48.648Z,18.42
2018-09-22T06:07:48.527Z,18.47
2018-09-22T06:08:48.436Z,18.31
2018-09-22T06:09:48.597Z,18.35
2018-09-22T06:14:15.669Z,18.44
2018-09-22T06:15:16.070Z,18.34
2018-09-22T06:16:15.790Z,18.29
2018-09-22T06:17:15.957Z,18.23
2018-09-22T06:18:15.692Z,18.24
2018-09-22T06:19:15.656Z,18.22
2018-09-22T06:20:15.840Z,18.21
2018-09-22T06:21:15.716Z,18.21
2018-09-22T06:22:15.903Z,18.11
2018-09-22T06:23:17.067Z,18.12
2018-09-22T06:24:15.818Z,18.17
2018-09-22T06:26:43.018Z,18.09
2018-09-22T06:27:43.240Z,18.06
2018-09-22T06:28:43.870Z,18.06
2018-09-22T06:29:43.126Z,18.12
2018-09-22T06:30:43.293Z,17.98
2018-09-22T06:31:43.347Z,18
2018-09-22T06:32:43.378Z,18.01
2018-09-22T06:33:43.250Z,18.06
2018-09-22T06:34:43.355Z,18.04
2018-09-22T06:35:43.305Z,18.05
2018-09-22T06:36:43.292Z,17.96
2018-09-22T06:41:10.594Z,18.04
2018-09-22T06:42:10.806Z,18.06
2018-09-22T06:43:10.420Z,18.1
2018-09-22T06:44:10.457Z,18.14
2018-09-22T06:45:10.779Z,18.25
2018-09-22T06:46:11.158Z,18.3
2018-09-22T06:47:10.504Z,18.36
2018-09-22T06:48:10.533Z,18.42
2018-09-22T06:49:10.569Z,18.48
2018-09-22T06:50:10.598Z,18.53
2018-09-22T06:51:10.516Z,18.57
2018-09-22T06:55:37.718Z,18.77
2018-09-22T06:56:38.116Z,18.79
2018-09-22T06:57:37.929Z,18.83
2018-09-22T06:58:37.903Z,18.86
2018-09-22T06:59:37.849Z,18.89
2018-09-22T07:00:37.963Z,18.92
2018-09-22T07:01:37.919Z,18.94
2018-09-22T07:02:37.985Z,18.97
2018-09-22T07:03:37.831Z,19
2018-09-22T07:04:37.757Z,19.03
2018-09-22T07:05:37.882Z,19.05
2018-09-22T07:07:59.320Z,19.11
2018-09-22T07:08:59.659Z,19.12
2018-09-22T07:09:59.607Z,19.14
2018-09-22T07:10:59.564Z,19.15
2018-09-22T07:11:59.718Z,19.17
2018-09-22T07:12:59.451Z,19.2
2018-09-22T07:13:59.654Z,19.21
2018-09-22T07:14:59.361Z,19.22
2018-09-22T07:16:00.033Z,19.24
2018-09-22T07:16:59.707Z,19.25
2018-09-22T07:17:59.405Z,19.27
2018-09-22T07:22:21.155Z,19.33
2018-09-22T07:23:21.014Z,19.33
2018-09-22T07:24:21.039Z,19.35
2018-09-22T07:25:21.497Z,19.37
2018-09-22T07:26:20.762Z,19.38
2018-09-22T07:27:20.897Z,19.39
2018-09-22T07:28:20.779Z,19.39
2018-09-22T07:29:21.328Z,19.4
2018-09-22T07:30:20.956Z,19.42
2018-09-22T07:31:20.965Z,19.43
2018-09-22T07:32:21.081Z,19.44
2018-09-22T07:36:42.794Z,19.5
2018-09-22T07:37:43.432Z,19.49
2018-09-22T07:38:43.013Z,19.5
2018-09-22T07:39:42.980Z,19.51
2018-09-22T07:40:43.089Z,19.52
2018-09-22T07:41:43.265Z,19.53
2018-09-22T07:42:43.372Z,19.55
2018-09-22T07:43:43.152Z,19.55
2018-09-22T07:44:42.993Z,19.57
2018-09-22T07:45:43.574Z,19.58
2018-09-22T07:46:43.298Z,19.58
2018-09-22T07:49:04.707Z,19.62
2018-09-22T07:50:04.964Z,19.61
2018-09-22T07:51:04.812Z,19.62
2018-09-22T07:52:04.701Z,19.63
2018-09-22T07:53:04.975Z,19.63
2018-09-22T07:54:04.942Z,19.64
2018-09-22T07:55:04.901Z,19.65
2018-09-22T07:56:04.458Z,19.64
2018-09-22T07:57:05.209Z,19.66
2018-09-22T07:58:04.850Z,19.67
2018-09-22T07:59:04.657Z,19.69
2018-09-22T08:03:26.370Z,19.72
2018-09-22T08:04:26.341Z,19.72
2018-09-22T08:05:26.648Z,19.72
2018-09-22T08:06:26.331Z,19.73
2018-09-22T08:07:26.381Z,19.74
2018-09-22T08:08:26.395Z,19.75
2018-09-22T08:09:26.385Z,19.75
2018-09-22T08:10:26.406Z,19.75
2018-09-22T08:11:26.487Z,19.75
2018-09-22T08:12:26.475Z,19.76
2018-09-22T08:13:26.413Z,19.76
2018-09-22T08:17:48.113Z,19.8
2018-09-22T08:18:48.407Z,19.79
2018-09-22T08:19:48.739Z,19.79
2018-09-22T08:20:48.259Z,19.8
2018-09-22T08:21:48.321Z,19.8
2018-09-22T08:22:48.161Z,19.81
2018-09-22T08:23:48.296Z,19.81
2018-09-22T08:24:47.945Z,19.81
2018-09-22T08:25:48.279Z,19.81
2018-09-22T08:26:48.432Z,19.82
2018-09-22T08:27:48.651Z,19.82
2018-09-22T08:32:09.577Z,19.86
2018-09-22T08:33:09.752Z,19.84
2018-09-22T08:34:09.907Z,19.85
2018-09-22T08:35:09.919Z,19.85
2018-09-22T08:36:11.217Z,19.85
2018-09-22T08:37:11.248Z,19.86
2018-09-22T08:38:09.894Z,19.87
2018-09-22T08:39:09.834Z,19.87
2018-09-22T08:40:09.825Z,19.87
2018-09-22T08:41:09.996Z,19.88
2018-09-22T08:42:09.823Z,19.88
2018-09-22T08:46:31.017Z,19.9
2018-09-22T08:47:31.051Z,19.89
2018-09-22T08:48:31.171Z,19.89
2018-09-22T08:49:31.937Z,19.89
2018-09-22T08:50:31.113Z,19.9
2018-09-22T08:51:31.106Z,19.91
2018-09-22T08:52:31.261Z,19.91
2018-09-22T08:53:31.279Z,19.91
2018-09-22T08:54:31.127Z,19.92
2018-09-22T08:55:31.334Z,19.92
2018-09-22T08:56:31.376Z,19.92
2018-09-22T08:58:53.326Z,19.94
2018-09-22T08:59:53.623Z,19.94
2018-09-22T09:00:53.293Z,19.94
2018-09-22T09:01:53.384Z,19.94
2018-09-22T09:02:53.732Z,19.94
2018-09-22T09:03:53.337Z,19.94
2018-09-22T09:04:53.748Z,19.94
2018-09-22T09:05:53.986Z,19.94
2018-09-22T09:06:53.323Z,19.95
2018-09-22T09:07:37.340Z,20.06
2018-09-22T09:08:37.035Z,20.1
2018-09-22T09:09:37.409Z,20.12
2018-09-22T09:10:37.330Z,20.15
2018-09-22T09:11:37.298Z,20.17
2018-09-22T09:12:37.360Z,20.18
2018-09-22T09:13:37.580Z,20.2
2018-09-22T09:14:38.036Z,20.21
2018-09-22T09:15:37.961Z,20.23
2018-09-22T09:16:37.260Z,20.24
2018-09-22T09:17:38.237Z,20.25
2018-09-22T09:20:07.772Z,20.27
2018-09-22T09:21:07.749Z,20.28
2018-09-22T09:22:07.785Z,20.3
2018-09-22T09:23:07.644Z,20.3
2018-09-22T09:24:07.611Z,20.31
2018-09-22T09:25:07.552Z,20.32
2018-09-22T09:26:07.656Z,20.33
2018-09-22T09:27:07.682Z,20.35
2018-09-22T09:28:07.672Z,20.35
2018-09-22T09:29:07.618Z,20.36
2018-09-22T09:30:07.828Z,20.37
2018-09-22T09:37:08.663Z,20.44
2018-09-22T09:38:22.275Z,20.45
2018-09-22T09:39:22.385Z,20.47
2018-09-22T09:40:22.159Z,20.47
2018-09-22T09:41:21.998Z,20.49
2018-09-22T09:42:22.375Z,20.5
2018-09-22T09:43:22.855Z,20.51
2018-09-22T09:44:22.370Z,20.51
2018-09-22T09:45:22.367Z,20.53
2018-09-22T09:46:22.016Z,20.53
2018-09-22T09:47:22.136Z,20.54
2018-09-22T09:48:22.420Z,20.55
2018-09-22T09:52:49.526Z,20.61
2018-09-22T10:31:33.885Z,20.65
2018-09-22T10:33:07.406Z,20.63
2018-09-22T10:34:07.482Z,20.59
2018-09-22T10:35:07.965Z,20.56
2018-09-22T10:36:07.677Z,20.54
2018-09-22T10:37:07.491Z,20.53
2018-09-22T10:38:07.734Z,20.52
2018-09-22T10:39:07.831Z,20.5
2018-09-22T10:40:07.646Z,20.54
2018-09-22T10:41:08.131Z,20.55
2018-09-22T10:42:08.193Z,20.57
2018-09-22T10:43:07.690Z,20.57
2018-09-22T10:44:07.825Z,20.59
2018-09-22T10:45:07.749Z,20.59
2018-09-22T10:46:07.869Z,20.6
2018-09-22T10:47:07.796Z,20.61
2018-09-22T10:48:07.894Z,20.62
2018-09-22T10:49:07.831Z,20.64
2018-09-22T10:50:08.002Z,20.64
2018-09-22T10:51:07.927Z,20.65
2018-09-22T10:52:07.902Z,20.66
2018-09-22T10:53:08.902Z,20.67
2018-09-22T10:54:07.886Z,20.68
2018-09-22T10:55:07.871Z,20.69
2018-09-22T10:56:07.796Z,20.7
2018-09-22T10:57:07.933Z,20.71
2018-09-22T10:58:08.045Z,20.72
2018-09-22T10:59:07.616Z,20.73
2018-09-22T11:00:07.693Z,20.75
2018-09-22T11:01:08.131Z,20.75
2018-09-22T11:02:07.872Z,20.77
2018-09-22T11:03:07.672Z,20.77
2018-09-22T11:04:08.082Z,20.77
2018-09-22T11:05:08.356Z,20.79
2018-09-22T11:06:08.085Z,20.79
2018-09-22T11:07:07.909Z,20.8
2018-09-22T11:08:08.530Z,20.81
2018-09-22T11:09:08.126Z,20.82
2018-09-22T11:10:07.896Z,20.82
2018-09-22T11:11:07.906Z,20.83
2018-09-22T11:12:07.904Z,20.83
2018-09-22T11:13:07.951Z,20.84
2018-09-22T11:14:07.715Z,20.86
2018-09-22T11:15:07.877Z,20.86
2018-09-22T11:16:07.799Z,20.87
2018-09-22T11:17:07.897Z,20.88
2018-09-22T11:18:07.995Z,20.89
2018-09-22T11:19:08.214Z,20.89
2018-09-22T11:20:07.887Z,20.9
2018-09-22T11:21:07.709Z,20.9
2018-09-22T11:22:08.024Z,20.91
2018-09-22T11:23:07.934Z,20.92
2018-09-22T11:24:08.101Z,20.93
2018-09-22T11:25:07.822Z,20.93
2018-09-22T11:26:07.899Z,20.94
2018-09-22T11:27:08.066Z,20.95
2018-09-22T11:28:07.750Z,20.95
2018-09-22T11:29:08.171Z,20.95
2018-09-22T11:30:07.774Z,20.93
2018-09-22T11:31:07.965Z,20.9
2018-09-22T11:32:07.883Z,20.89
2018-09-22T11:33:07.984Z,20.88
2018-09-22T11:34:08.119Z,20.87
2018-09-22T11:35:07.852Z,20.86
2018-09-22T11:36:07.900Z,20.84
2018-09-22T11:37:08.036Z,20.83
2018-09-22T11:38:08.030Z,20.83
2018-09-22T11:39:07.912Z,20.82
2018-09-22T11:40:07.881Z,20.81
2018-09-22T11:41:08.015Z,20.8
2018-09-22T11:42:07.975Z,20.8
2018-09-22T11:43:07.812Z,20.8
2018-09-22T11:44:08.277Z,20.79
2018-09-22T11:45:07.949Z,20.78
2018-09-22T11:46:08.167Z,20.78
2018-09-22T11:47:08.199Z,20.77
2018-09-22T11:48:08.021Z,20.77
2018-09-22T11:49:07.581Z,20.77
2018-09-22T11:50:07.771Z,20.77
2018-09-22T11:51:07.673Z,20.77
2018-09-22T11:52:08.032Z,20.76
2018-09-22T11:53:07.656Z,20.76
2018-09-22T11:54:07.688Z,20.77
2018-09-22T11:55:07.623Z,20.75
2018-09-22T11:56:07.948Z,20.75
2018-09-22T11:57:08.121Z,20.75
2018-09-22T11:58:07.893Z,20.75
2018-09-22T11:59:07.831Z,20.74
2018-09-22T12:00:07.808Z,20.74
2018-09-22T12:01:07.751Z,20.74
2018-09-22T12:02:07.829Z,20.74
2018-09-22T12:03:07.724Z,20.73
2018-09-22T12:04:07.855Z,20.74
2018-09-22T12:05:07.763Z,20.73
2018-09-22T12:06:09.019Z,20.73
2018-09-22T12:07:08.130Z,20.73
2018-09-22T12:08:07.835Z,20.73
2018-09-22T12:09:08.043Z,20.73
2018-09-22T12:10:07.605Z,20.72
2018-09-22T12:11:07.724Z,20.72
2018-09-22T12:12:07.792Z,20.71
2018-09-22T12:13:07.748Z,20.71
2018-09-22T12:14:08.488Z,20.71
2018-09-22T12:15:07.544Z,20.71
2018-09-22T12:16:07.638Z,20.7
2018-09-22T12:17:07.642Z,20.7
2018-09-22T12:18:07.704Z,20.7
2018-09-22T12:19:08.068Z,20.69
2018-09-22T12:20:07.826Z,20.69
2018-09-22T12:21:07.713Z,20.71
2018-09-22T12:22:07.842Z,20.74
2018-09-22T12:23:07.826Z,20.77
2018-09-22T12:24:07.750Z,20.77
2018-09-22T12:25:07.961Z,20.79
2018-09-22T12:26:07.944Z,20.81
2018-09-22T12:27:08.083Z,20.83
2018-09-22T12:28:13.373Z,20.82
2018-09-22T12:29:13.285Z,20.83
2018-09-22T12:30:13.349Z,20.83
2018-09-22T12:31:11.853Z,20.84
2018-09-22T12:32:04.396Z,20.85
2018-09-22T12:32:36.726Z,20.85
2018-09-22T12:33:37.088Z,20.83
2018-09-22T12:34:37.006Z,20.83
2018-09-22T12:35:37.189Z,20.83
2018-09-22T12:36:37.043Z,20.83
2018-09-22T12:37:36.863Z,20.83
2018-09-22T12:38:36.877Z,20.83
2018-09-22T12:39:36.867Z,20.83
2018-09-22T12:40:36.864Z,20.83
2018-09-22T12:41:37.054Z,20.83
2018-09-22T12:42:36.920Z,20.83
2018-09-22T12:43:37.070Z,20.82
2018-09-22T12:44:37.087Z,20.82
2018-09-22T12:45:36.831Z,20.82
2018-09-22T12:46:37.338Z,20.82
2018-09-22T12:47:44.061Z,20.82
2018-09-22T12:48:44.160Z,20.82
2018-09-22T12:49:44.350Z,20.81
2018-09-22T12:50:44.477Z,20.82
2018-09-22T12:51:44.157Z,20.83
2018-09-22T12:52:44.118Z,20.82
2018-09-22T12:53:44.731Z,20.82
2018-09-22T12:54:44.119Z,20.82
2018-09-22T12:55:44.157Z,20.82
2018-09-22T12:56:44.332Z,20.83
2018-09-22T12:57:44.193Z,20.83
2018-09-22T12:58:17.202Z,20.84
2018-09-22T12:59:17.413Z,20.83
2018-09-22T13:00:16.815Z,20.82
2018-09-22T13:01:16.922Z,20.78
2018-09-22T13:02:17.452Z,20.77
2018-09-22T13:03:16.784Z,20.76
2018-09-22T13:04:16.800Z,20.74
2018-09-22T13:05:16.887Z,20.72
2018-09-22T13:06:17.009Z,20.71
2018-09-22T13:07:16.998Z,20.7
2018-09-22T13:08:17.096Z,20.73
2018-09-22T13:09:17.336Z,20.77
2018-09-22T13:10:16.782Z,20.78
2018-09-22T13:11:17.138Z,20.78
2018-09-22T13:12:16.884Z,20.8
2018-09-22T13:13:17.119Z,20.82
2018-09-22T13:14:16.994Z,20.83
2018-09-22T13:15:17.106Z,20.82
2018-09-22T13:16:17.069Z,20.83
2018-09-22T13:17:17.020Z,20.84
2018-09-22T13:18:16.990Z,20.84
2018-09-22T13:19:17.145Z,20.85
2018-09-22T13:20:17.915Z,20.86
2018-09-22T13:21:16.968Z,20.85
2018-09-22T13:22:17.202Z,20.86
2018-09-22T13:23:17.161Z,20.85
2018-09-22T13:24:16.816Z,20.85
2018-09-22T13:25:16.964Z,20.86
2018-09-22T13:26:16.766Z,20.85
2018-09-22T13:27:10.105Z,20.85
2018-09-22T13:28:09.828Z,20.85
2018-09-22T13:29:09.747Z,20.86
2018-09-22T13:30:09.757Z,20.87
2018-09-22T13:31:09.745Z,20.87
2018-09-22T13:32:09.536Z,20.87
2018-09-22T13:33:09.632Z,20.87
2018-09-22T13:34:09.277Z,20.87
2018-09-22T13:35:09.211Z,20.89
2018-09-22T13:36:09.151Z,20.89
2018-09-22T13:37:10.009Z,20.89
2018-09-22T13:39:36.809Z,20.92
2018-09-22T13:40:37.135Z,20.9
2018-09-22T13:41:37.113Z,20.9
2018-09-22T13:42:36.937Z,20.9
2018-09-22T13:43:36.833Z,20.92
2018-09-22T13:45:12.230Z,20.93
2018-09-22T13:46:12.303Z,20.93
2018-09-22T13:47:12.305Z,20.93
2018-09-22T13:48:11.918Z,20.93
2018-09-22T13:49:12.042Z,20.93
2018-09-22T13:50:11.890Z,20.94
2018-09-22T13:51:12.211Z,20.94
2018-09-22T13:53:05.570Z,20.95
2018-09-22T13:54:05.839Z,20.94
2018-09-22T13:55:05.787Z,20.93
2018-09-22T13:56:05.997Z,20.92
2018-09-22T13:57:05.795Z,20.89
2018-09-22T13:58:05.672Z,20.86
2018-09-22T13:59:05.771Z,20.85
2018-09-22T14:00:05.941Z,20.84
2018-09-22T14:01:05.888Z,20.83
2018-09-22T14:02:06.209Z,20.82
2018-09-22T14:03:05.857Z,20.81
2018-09-22T14:05:33.377Z,20.79
2018-09-22T14:06:33.032Z,20.77
2018-09-22T14:07:33.066Z,20.77
2018-09-22T14:08:33.438Z,20.76
2018-09-22T14:09:33.593Z,20.76
2018-09-22T14:10:34.322Z,20.75
2018-09-22T14:11:33.288Z,20.74
2018-09-22T14:12:33.106Z,20.73
2018-09-22T14:13:33.278Z,20.72
2018-09-22T14:14:33.272Z,20.71
2018-09-22T14:15:33.192Z,20.71
2018-09-22T14:18:00.324Z,20.72
2018-09-22T14:19:00.678Z,20.7
2018-09-22T14:20:00.668Z,20.69
2018-09-22T14:21:00.386Z,20.69
2018-09-22T14:22:00.577Z,20.68
2018-09-22T14:23:00.194Z,20.67
2018-09-22T14:24:00.437Z,20.67
2018-09-22T14:25:00.727Z,20.67
2018-09-22T14:26:00.687Z,20.66
2018-09-22T14:27:00.877Z,20.65
2018-09-22T14:28:00.677Z,20.65
2018-09-22T14:30:28.693Z,20.65
2018-09-22T14:31:27.873Z,20.63
2018-09-22T14:32:27.910Z,20.63
2018-09-22T14:33:28.124Z,20.62
2018-09-22T14:34:28.177Z,20.61
2018-09-22T14:35:28.030Z,20.61
2018-09-22T14:36:27.786Z,20.6
2018-09-22T14:37:27.906Z,20.59
2018-09-22T14:38:27.911Z,20.59
2018-09-22T14:39:28.267Z,20.59
2018-09-22T14:40:28.327Z,20.58
2018-09-22T14:42:55.108Z,20.58
2018-09-22T14:43:55.150Z,20.56
2018-09-22T14:44:55.177Z,20.55
2018-09-22T14:45:55.468Z,20.54
2018-09-22T14:46:55.126Z,20.55
2018-09-22T14:47:55.256Z,20.54
2018-09-22T14:48:55.346Z,20.53
2018-09-22T14:49:55.314Z,20.53
2018-09-22T14:50:55.200Z,20.52
2018-09-22T14:51:55.683Z,20.51
2018-09-22T14:52:55.229Z,20.51
2018-09-22T14:55:22.366Z,20.53
2018-09-22T14:56:22.525Z,20.51
2018-09-22T14:57:22.555Z,20.5
2018-09-22T14:58:22.562Z,20.5
2018-09-22T14:59:22.645Z,20.5
2018-09-22T15:00:22.491Z,20.5
2018-09-22T15:01:22.643Z,20.49
2018-09-22T15:02:22.506Z,20.49
2018-09-22T15:03:22.747Z,20.48
2018-09-22T15:04:22.659Z,20.48
2018-09-22T15:05:22.687Z,20.47
2018-09-22T15:07:50.059Z,20.48
2018-09-22T15:08:49.844Z,20.46
2018-09-22T15:09:49.796Z,20.46
2018-09-22T15:10:49.834Z,20.46
2018-09-22T15:11:49.841Z,20.45
2018-09-22T15:12:49.789Z,20.44
2018-09-22T15:13:49.883Z,20.44
2018-09-22T15:14:49.982Z,20.44
2018-09-22T15:15:50.101Z,20.44
2018-09-22T15:16:51.411Z,20.44
2018-09-22T15:17:50.257Z,20.43
2018-09-22T15:20:17.241Z,20.45
2018-09-22T15:21:17.274Z,20.43
2018-09-22T15:22:17.292Z,20.42
2018-09-22T15:23:17.474Z,20.42
2018-09-22T15:24:17.316Z,20.43
2018-09-22T15:25:17.417Z,20.42
2018-09-22T15:26:17.114Z,20.42
2018-09-22T15:27:17.211Z,20.42
2018-09-22T15:28:17.283Z,20.41
2018-09-22T15:29:17.258Z,20.42
2018-09-22T15:30:17.373Z,20.42
2018-09-22T15:32:44.505Z,20.43
2018-09-22T15:33:44.683Z,20.41
2018-09-22T15:34:44.661Z,20.41
2018-09-22T15:35:44.545Z,20.41